Time;durP1;ratioP1;P1;durP2;ratioP2;P2;SDS_P1;SDS_P2;PMS_P1;PMS_P2;Temp;Humidity;BMP_temperature;BMP_pressure;BME280_temperature;BME280_humidity;BME280_pressure;Samples;Min_cycle;Max_cycle;Signal;HPM_P1;HPM_P2
2020/12/12 00:02:00;;;;;;;63.58;32.60;;;;;;;-3.72;100.00;99307.22;1817724;78;21629;-72
2020/12/12 00:04:29;;;;;;;65.15;33.80;;;;;;;-3.71;100.00;99303.59;1779698;80;21171;-73
2020/12/12 00:07:00;;;;;;;62.17;29.00;;;;;;;-3.70;100.00;99297.35;1793196;80;21155;-70
2020/12/12 00:09:28;;;;;;;55.35;31.37;;;;;;;-3.68;100.00;99296.20;1793267;79;21841;-70
2020/12/12 00:11:56;;;;;;;55.33;27.70;;;;;;;-3.65;100.00;99301.59;1793650;80;20945;-72
2020/12/12 00:14:24;;;;;;;50.33;24.80;;;;;;;-3.62;100.00;99300.47;1793614;79;21182;-72
2020/12/12 00:16:54;;;;;;;55.05;28.55;;;;;;;-3.62;100.00;99299.97;1804459;78;21223;-71
2020/12/12 00:19:22;;;;;;;60.58;26.70;;;;;;;-3.59;100.00;99301.44;1774435;80;21524;-72
2020/12/12 00:21:53;;;;;;;46.25;24.92;;;;;;;-3.56;100.00;99306.34;1767043;81;21572;-72
2020/12/12 00:24:22;;;;;;;49.77;26.85;;;;;;;-3.55;100.00;99302.72;1774478;80;21484;-71
2020/12/12 00:26:50;;;;;;;48.20;28.35;;;;;;;-3.55;100.00;99292.23;1774506;80;22227;-70
2020/12/12 00:29:18;;;;;;;50.50;26.20;;;;;;;-3.52;100.00;99293.22;1774661;80;21499;-72
2020/12/12 00:31:59;;;;;;;51.70;27.37;;;;;;;-3.50;100.00;99297.31;1774529;80;21665;-72
2020/12/12 00:34:29;;;;;;;58.38;32.90;;;;;;;-3.48;100.00;99298.44;1774368;80;21164;-71
2020/12/12 00:36:57;;;;;;;52.65;29.60;;;;;;;-3.47;100.00;99291.72;1774381;80;21153;-71
2020/12/12 00:39:25;;;;;;;45.90;26.17;;;;;;;-3.44;100.00;99293.18;1746553;80;22097;-71
2020/12/12 00:41:53;;;;;;;49.70;26.02;;;;;;;-3.42;100.00;99295.65;1769520;80;21208;-71
2020/12/12 00:44:22;;;;;;;54.00;26.70;;;;;;;-3.40;100.00;99294.49;1763388;80;21536;-71
2020/12/12 00:46:50;;;;;;;55.52;29.27;;;;;;;-3.39;100.00;99296.61;1763359;81;20986;-71
2020/12/12 00:49:19;;;;;;;47.33;22.07;;;;;;;-3.38;100.00;99288.58;1763362;81;21105;-70
2020/12/12 00:51:47;;;;;;;53.92;31.27;;;;;;;-3.36;100.00;99295.77;1762156;81;21799;-71
2020/12/12 00:54:15;;;;;;;55.80;27.00;;;;;;;-3.33;100.00;99285.42;1753923;81;21205;-70
2020/12/12 00:56:43;;;;;;;44.25;24.32;;;;;;;-3.32;100.00;99298.39;1727576;83;21192;-71
2020/12/12 00:59:11;;;;;;;54.77;27.05;;;;;;;-3.32;100.00;99301.02;1727649;83;21128;-72
2020/12/12 01:01:41;;;;;;;53.42;25.95;;;;;;;-3.32;100.00;99304.14;1741446;80;21003;-71
2020/12/12 01:04:09;;;;;;;54.05;27.73;;;;;;;-3.31;100.00;99303.13;1740125;82;22525;-72
2020/12/12 01:06:37;;;;;;;59.27;29.75;;;;;;;-3.31;100.00;99307.87;1735431;82;21146;-70
2020/12/12 01:09:06;;;;;;;49.23;24.18;;;;;;;-3.30;100.00;99315.28;1741706;81;21205;-71
2020/12/12 01:11:35;;;;;;;57.90;30.55;;;;;;;-3.31;100.00;99309.70;1741568;81;21711;-70
2020/12/12 01:14:03;;;;;;;57.27;27.45;;;;;;;-3.31;100.00;99306.57;1741719;81;21051;-71
2020/12/12 01:16:31;;;;;;;56.90;32.30;;;;;;;-3.32;100.00;99304.95;1741595;81;21694;-70
2020/12/12 01:18:59;;;;;;;53.58;27.10;;;;;;;-3.33;100.00;99307.73;1741638;81;21668;-73
2020/12/12 01:21:28;;;;;;;54.25;29.05;;;;;;;-3.32;100.00;99308.07;1741667;82;21632;-70
2020/12/12 01:23:57;;;;;;;57.30;27.77;;;;;;;-3.35;100.00;99290.86;1741495;81;21130;-72
2020/12/12 01:26:25;;;;;;;56.08;28.80;;;;;;;-3.34;100.00;99308.23;1741841;81;21039;-71
2020/12/12 01:28:53;;;;;;;55.65;27.93;;;;;;;-3.35;100.00;99305.80;1742167;82;21634;-71
2020/12/12 01:31:21;;;;;;;59.83;29.05;;;;;;;-3.38;100.00;99300.39;1736174;82;21138;-71
2020/12/12 01:33:49;;;;;;;60.43;29.15;;;;;;;-3.40;100.00;99303.67;1736330;82;21114;-71
2020/12/12 01:36:17;;;;;;;61.90;32.95;;;;;;;-3.42;100.00;99299.08;1741865;82;21197;-71
2020/12/12 01:38:46;;;;;;;61.90;31.50;;;;;;;-3.46;100.00;99297.28;1741821;81;21588;-72
2020/12/12 01:41:18;;;;;;;62.78;31.65;;;;;;;-3.45;100.00;99305.99;1742200;81;22355;-72
2020/12/12 01:43:51;;;;;;;71.35;38.98;;;;;;;-3.48;100.00;99294.50;1753268;81;21132;-72
2020/12/12 01:46:26;;;;;;;52.65;26.25;;;;;;;-3.51;100.00;99298.78;1761236;81;21612;-70
2020/12/12 01:48:56;;;;;;;59.33;30.75;;;;;;;-3.52;100.00;99300.59;1743497;81;20927;-72
2020/12/12 01:51:27;;;;;;;69.70;34.33;;;;;;;-3.54;100.00;99295.19;1762090;81;21129;-70
2020/12/12 01:53:58;;;;;;;95.38;47.80;;;;;;;-3.56;100.00;99293.23;1736453;81;22237;-71
2020/12/12 01:56:26;;;;;;;64.58;30.77;;;;;;;-3.59;100.00;99283.08;1698063;83;21174;-72
2020/12/12 01:58:54;;;;;;;59.55;30.70;;;;;;;-3.60;100.00;99294.54;1680218;84;21593;-70
2020/12/12 02:01:23;;;;;;;67.97;32.60;;;;;;;-3.63;100.00;99281.77;1730331;82;21555;-73
2020/12/12 02:03:51;;;;;;;66.95;38.90;;;;;;;-3.66;100.00;99276.37;1730188;82;21022;-72
2020/12/12 02:06:20;;;;;;;;;;;;;;;-3.69;100.00;99285.89;1732840;82;22218;-70
2020/12/12 02:08:52;;;;;;;72.00;34.10;;;;;;;-3.68;100.00;99278.33;1730448;82;20582;-72
2020/12/12 02:11:22;;;;;;;39.80;19.48;;;;;;;-3.70;100.00;99281.61;1730336;82;21213;-72
2020/12/12 02:13:50;;;;;;;70.67;32.67;;;;;;;-3.72;100.00;99274.43;1730319;82;21853;-71
2020/12/12 02:16:18;;;;;;;53.10;28.17;;;;;;;-3.71;100.00;99281.30;1730398;82;20976;-71
2020/12/12 02:18:47;;;;;;;66.82;34.15;;;;;;;-3.72;100.00;99290.98;1730063;82;21248;-70
2020/12/12 02:21:15;;;;;;;;;;;;;;;-3.73;100.00;99290.64;1732582;82;21189;-72
2020/12/12 02:23:44;;;;;;;67.03;30.85;;;;;;;-3.73;100.00;99292.45;1730347;82;20278;-72
2020/12/12 02:26:13;;;;;;;;;;;;;;;-3.73;100.00;99288.52;1731565;83;21047;-71
2020/12/12 02:31:30;;;;;;;57.13;27.95;;;;;;;-3.69;100.00;99296.38;1873327;75;28212;-70
2020/12/12 02:33:59;;;;;;;63.98;31.00;;;;;;;-3.73;100.00;99297.20;1813706;78;21090;-69
2020/12/12 02:36:27;;;;;;;65.70;29.42;;;;;;;-3.74;100.00;99296.88;1818816;78;21623;-70
2020/12/12 02:38:56;;;;;;;65.10;25.10;;;;;;;-3.75;100.00;99290.02;1818632;78;21623;-71
2020/12/12 02:41:25;;;;;;;52.95;28.02;;;;;;;-3.73;100.00;99288.52;1818967;78;21070;-71
2020/12/12 02:43:53;;;;;;;65.17;32.58;;;;;;;-3.74;100.00;99288.20;1818782;78;21046;-71
2020/12/12 02:46:21;;;;;;;68.33;34.15;;;;;;;-3.73;100.00;99286.70;1818828;78;21026;-71
2020/12/12 02:48:50;;;;;;;47.13;21.27;;;;;;;-3.72;100.00;99287.55;1823287;77;21239;-69
2020/12/12 02:51:18;;;;;;;59.65;29.05;;;;;;;-3.72;100.00;99280.48;1818723;78;20971;-69
2020/12/12 02:53:46;;;;;;;51.45;26.20;;;;;;;-3.71;100.00;99276.87;1787342;78;21809;-71
2020/12/12 02:56:16;;;;;;;46.98;23.32;;;;;;;-3.70;100.00;99273.75;1823267;77;21210;-70
2020/12/12 02:58:45;;;;;;;61.45;27.87;;;;;;;-3.69;100.00;99278.02;1818726;78;21154;-70
2020/12/12 03:01:14;;;;;;;56.92;30.65;;;;;;;-3.69;100.00;99284.08;1818331;78;21896;-70
2020/12/12 03:03:43;;;;;;;55.17;31.55;;;;;;;-3.68;100.00;99275.21;1818706;78;21173;-70
2020/12/12 03:06:11;;;;;;;64.45;28.80;;;;;;;-3.67;100.00;99282.61;1818665;78;21150;-71
2020/12/12 03:08:39;;;;;;;52.62;24.20;;;;;;;-3.65;100.00;99283.23;1818609;78;21197;-69
2020/12/12 03:11:07;;;;;;;54.03;29.72;;;;;;;-3.62;100.00;99280.80;1782109;78;21647;-72
2020/12/12 03:13:35;;;;;;;51.23;23.77;;;;;;;-3.62;100.00;99286.86;1818774;78;21172;-71
2020/12/12 03:16:03;;;;;;;57.45;27.98;;;;;;;-3.61;100.00;99279.80;1818684;78;21615;-71
2020/12/12 03:18:31;;;;;;;53.60;29.02;;;;;;;-3.59;100.00;99281.77;1818515;78;21097;-71
2020/12/12 03:20:59;;;;;;;49.80;24.07;;;;;;;-3.59;100.00;99279.14;1813461;77;21612;-69
2020/12/12 03:23:28;;;;;;;48.10;25.48;;;;;;;-3.58;100.00;99276.33;1786535;80;24986;-69
2020/12/12 03:25:57;;;;;;;52.75;25.05;;;;;;;-3.58;100.00;99276.83;1786407;80;21633;-70
2020/12/12 03:28:26;;;;;;;57.60;27.70;;;;;;;-3.56;100.00;99283.55;1786381;80;21592;-71
2020/12/12 03:30:54;;;;;;;44.93;24.43;;;;;;;-3.55;100.00;99280.42;1786362;79;21162;-71
2020/12/12 03:33:22;;;;;;;50.85;23.27;;;;;;;-3.55;100.00;99276.02;1786450;80;21177;-70
2020/12/12 03:35:50;;;;;;;61.25;26.23;;;;;;;-3.53;100.00;99285.85;1786504;79;21193;-72
2020/12/12 03:38:18;;;;;;;48.40;23.02;;;;;;;-3.54;100.00;99285.51;1786464;80;21637;-69
2020/12/12 03:40:46;;;;;;;55.48;26.30;;;;;;;-3.54;100.00;99283.38;1786355;79;22414;-71
2020/12/12 03:43:14;;;;;;;44.75;25.62;;;;;;;-3.55;100.00;99286.98;1785977;80;21574;-68
2020/12/12 03:45:42;;;;;;;51.10;28.67;;;;;;;-3.57;100.00;99285.86;1785957;79;21651;-71
2020/12/12 03:48:11;;;;;;;51.95;26.23;;;;;;;-3.57;100.00;99283.73;1785930;79;21581;-69
2020/12/12 03:50:39;;;;;;;60.35;29.95;;;;;;;-3.58;100.00;99289.45;1785928;80;23155;-70
2020/12/12 03:53:07;;;;;;;63.50;31.20;;;;;;;-3.61;100.00;99283.73;1791491;77;21050;-70
2020/12/12 03:55:35;;;;;;;59.40;29.45;;;;;;;-3.63;100.00;99283.89;1848203;77;21584;-69
2020/12/12 03:58:03;;;;;;;63.30;30.00;;;;;;;-3.64;100.00;99283.58;1779285;80;21628;-70
2020/12/12 04:00:31;;;;;;;69.15;33.33;;;;;;;-3.67;100.00;99286.05;1851494;77;21148;-71
2020/12/12 04:03:03;;;;;;;59.10;30.52;;;;;;;-3.69;100.00;99279.33;1851530;77;27024;-71
2020/12/12 04:05:32;;;;;;;45.88;21.42;;;;;;;-3.70;100.00;99282.92;1851538;77;21637;-71
2020/12/12 04:08:00;;;;;;;50.83;26.12;;;;;;;-3.71;100.00;99275.55;1779294;80;21580;-72
2020/12/12 04:10:29;;;;;;;64.07;32.38;;;;;;;-3.71;100.00;99276.05;1851494;77;21114;-70
2020/12/12 04:12:56;;;;;;;60.12;26.68;;;;;;;-3.72;100.00;99279.18;1779265;80;21668;-70
2020/12/12 04:15:24;;;;;;;54.00;26.95;;;;;;;-3.72;100.00;99277.05;1851583;77;21864;-71
2020/12/12 04:17:53;;;;;;;61.33;28.52;;;;;;;-3.75;100.00;99275.59;1851366;77;21166;-70
2020/12/12 04:20:21;;;;;;;63.57;34.00;;;;;;;-3.75;100.00;99267.72;1801627;78;21042;-70
2020/12/12 04:22:49;;;;;;;71.67;33.33;;;;;;;-3.74;100.00;99283.77;1785852;80;21476;-69
2020/12/12 04:25:17;;;;;;;54.35;24.45;;;;;;;-3.74;100.00;99279.02;1785823;80;23080;-70
2020/12/12 04:27:46;;;;;;;61.37;31.97;;;;;;;-3.75;100.00;99273.44;1785822;80;21631;-71
2020/12/12 04:30:13;;;;;;;72.27;33.98;;;;;;;-3.76;100.00;99272.62;1800720;77;21070;-69
2020/12/12 04:32:42;;;;;;;51.15;23.07;;;;;;;-3.77;100.00;99275.41;1796015;80;21102;-70
2020/12/12 04:35:10;;;;;;;58.68;28.55;;;;;;;-3.76;100.00;99277.05;1794721;80;20987;-70
2020/12/12 04:37:39;;;;;;;65.50;30.17;;;;;;;-3.76;100.00;99269.19;1794587;80;21607;-70
2020/12/12 04:40:10;;;;;;;61.05;27.98;;;;;;;-3.77;100.00;99265.75;1779105;80;22495;-69
2020/12/12 04:42:37;;;;;;;62.80;30.57;;;;;;;-3.76;100.00;99264.75;1794408;80;21221;-71
2020/12/12 04:45:06;;;;;;;63.23;31.48;;;;;;;-3.74;100.00;99250.98;1794469;80;21141;-69
2020/12/12 04:47:35;;;;;;;61.00;28.95;;;;;;;-3.75;100.00;99258.54;1794434;80;21102;-71
2020/12/12 04:50:03;;;;;;;64.47;34.27;;;;;;;-3.76;100.00;99256.89;1779045;80;21196;-70
2020/12/12 04:52:33;;;;;;;57.90;27.70;;;;;;;-3.75;100.00;99249.83;1797837;77;21239;-70
2020/12/12 04:55:05;;;;;;;58.00;29.23;;;;;;;-3.75;100.00;99249.83;1813019;78;21055;-69
2020/12/12 04:57:34;;;;;;;62.53;32.38;;;;;;;-3.75;100.00;99248.52;1756293;80;21086;-69
2020/12/12 05:00:13;;;;;;;52.08;27.35;;;;;;;-3.75;100.00;99246.73;1787412;80;21145;-71
2020/12/12 05:02:41;;;;;;;;;;;;;;;-3.73;100.00;99253.11;1758918;81;21118;-70
2020/12/12 05:05:11;;;;;;;56.35;27.37;;;;;;;-3.75;100.00;99254.61;1787553;80;21255;-70
2020/12/12 05:07:39;;;;;;;53.60;29.63;;;;;;;-3.76;100.00;99249.02;1756232;81;21201;-71
2020/12/12 05:10:07;;;;;;;68.72;34.00;;;;;;;-3.77;100.00;99250.48;1758990;80;21067;-70
2020/12/12 05:12:35;;;;;;;59.27;27.60;;;;;;;-3.78;100.00;99251.48;1756178;81;21612;-73
2020/12/12 05:15:06;;;;;;;66.97;32.53;;;;;;;-3.79;100.00;99246.73;1759287;80;21636;-73
2020/12/12 05:17:34;;;;;;;63.55;32.85;;;;;;;-3.81;100.00;99255.27;1735909;81;21717;-70
2020/12/12 05:20:02;;;;;;;75.25;36.33;;;;;;;-3.83;100.00;99259.05;1753305;81;21220;-74
2020/12/12 05:22:34;;;;;;;62.08;31.23;;;;;;;-3.84;100.00;99260.85;1709872;83;21668;-71
2020/12/12 05:25:01;;;;;;;60.15;32.30;;;;;;;-3.85;100.00;99259.20;1753313;81;21038;-70
2020/12/12 05:27:30;;;;;;;57.70;31.73;;;;;;;-3.85;100.00;99263.63;1699752;83;21077;-71
2020/12/12 05:29:59;;;;;;;56.95;31.42;;;;;;;-3.87;100.00;99254.64;1756222;81;21604;-69
2020/12/12 05:32:27;;;;;;;51.90;26.62;;;;;;;-3.88;100.00;99268.22;1745240;82;21073;-69
2020/12/12 05:34:59;;;;;;;59.13;29.98;;;;;;;-3.89;100.00;99261.35;1745604;81;21137;-71
2020/12/12 05:37:28;;;;;;;54.85;27.70;;;;;;;-3.88;100.00;99262.16;1745416;82;21047;-71
2020/12/12 05:39:56;;;;;;;63.45;31.05;;;;;;;-3.91;100.00;99256.77;1745546;82;21007;-71
2020/12/12 05:42:24;;;;;;;51.25;26.33;;;;;;;-3.90;100.00;99262.82;1718614;82;21720;-71
2020/12/12 05:44:53;;;;;;;55.65;26.12;;;;;;;-3.92;100.00;99258.23;1741211;81;21081;-71
2020/12/12 05:47:21;;;;;;;56.25;29.98;;;;;;;-3.91;100.00;99263.81;1704378;82;21467;-71
2020/12/12 05:49:49;;;;;;;55.33;27.07;;;;;;;-3.93;100.00;99263.97;1723984;81;21644;-70
2020/12/12 05:52:17;;;;;;;;;;;;;;;-3.93;100.00;99266.59;1738031;81;21113;-71
2020/12/12 05:54:45;;;;;;;44.08;23.22;;;;;;;-3.96;100.00;99261.70;1724717;83;22660;-72
2020/12/12 05:57:13;;;;;;;43.23;21.50;;;;;;;-3.96;100.00;99270.88;1724023;81;21657;-71
2020/12/12 05:59:42;;;;;;;38.83;20.50;;;;;;;-3.98;100.00;99259.73;1723628;82;21198;-70
2020/12/12 06:02:10;;;;;;;38.58;20.17;;;;;;;-3.99;100.00;99273.83;1750779;81;21005;-71
2020/12/12 06:04:42;;;;;;;41.60;20.85;;;;;;;-4.01;100.00;99266.63;1750953;81;21148;-72
2020/12/12 06:07:10;;;;;;;46.28;23.15;;;;;;;-4.02;100.00;99266.78;1723862;83;21652;-70
2020/12/12 06:09:38;;;;;;;56.28;26.62;;;;;;;-4.03;100.00;99266.47;1718894;81;21683;-71
2020/12/12 06:12:07;;;;;;;50.00;26.48;;;;;;;-4.03;100.00;99270.39;1745894;81;21224;-71
2020/12/12 06:14:36;;;;;;;57.05;26.50;;;;;;;-4.03;100.00;99280.88;1768918;80;21637;-71
2020/12/12 06:17:08;;;;;;;61.98;28.70;;;;;;;-4.02;100.00;99290.38;1747522;81;21119;-71
2020/12/12 06:19:39;;;;;;;67.60;29.72;;;;;;;-4.05;100.00;99277.11;1781429;80;21253;-70
2020/12/12 06:22:07;;;;;;;55.45;30.45;;;;;;;-4.04;100.00;99290.56;1729200;80;21628;-71
2020/12/12 06:24:37;;;;;;;45.20;26.55;;;;;;;-4.06;100.00;99295.64;1781712;80;21162;-72
2020/12/12 06:27:52;;;;;;;42.58;22.10;;;;;;;-4.08;100.00;99297.11;1777767;80;21422;-71
2020/12/12 06:30:34;;;;;;;48.70;23.67;;;;;;;-4.12;100.00;99294.48;1745043;82;21153;-72
2020/12/12 06:52:09;;;;;;;;;;;;;;;;;;;;;
2020/12/12 07:25:07;;;;;;;61.77;30.50;;;;;;;-4.46;100.00;99271.89;1661192;84;21174;-72
2020/12/12 08:00:52;;;;;;;55.65;27.62;;;;;;;-4.71;100.00;99272.38;1624133;88;21081;-70
2020/12/12 08:04:23;;;;;;;63.17;33.58;;;;;;;-4.72;100.00;99262.08;1539999;93;21661;-72
2020/12/12 08:07:17;;;;;;;58.83;30.92;;;;;;;-4.69;100.00;99265.17;1875947;75;28221;-74
2020/12/12 08:09:53;;;;;;;64.73;31.93;;;;;;;-4.78;100.00;99267.45;1776580;78;21002;-74
2020/12/12 08:12:45;;;;;;;65.52;36.20;;;;;;;-4.83;100.00;99269.24;1817447;78;22210;-71
2020/12/12 08:31:39;;;;;;;56.28;33.00;;;;;;;-4.78;100.00;99256.98;1831309;77;28108;-72
2020/12/12 08:34:09;;;;;;;67.40;32.58;;;;;;;-4.80;100.00;99259.78;1786668;80;21081;-73
2020/12/12 08:36:37;;;;;;;100.10;43.15;;;;;;;-4.76;100.00;99262.37;1787114;80;22494;-72
2020/12/12 08:39:11;;;;;;;79.27;40.20;;;;;;;-4.73;100.00;99256.00;1786651;80;21021;-71
2020/12/12 08:41:39;;;;;;;71.05;33.73;;;;;;;-4.76;100.00;99261.56;1787089;80;21887;-72
2020/12/12 08:44:08;;;;;;;86.40;33.18;;;;;;;-4.79;100.00;99252.73;1786943;80;21104;-70
2020/12/12 08:46:37;;;;;;;59.35;28.50;;;;;;;-4.84;100.00;99261.56;1786995;80;20966;-73
2020/12/12 08:49:15;;;;;;;48.58;27.70;;;;;;;-4.87;100.00;99251.42;1786868;80;21566;-72
2020/12/12 08:51:52;;;;;;;57.80;28.52;;;;;;;-4.91;100.00;99244.86;1786959;80;21042;-74
2020/12/12 08:54:21;;;;;;;58.40;34.05;;;;;;;-4.91;100.00;99254.03;1786626;80;20937;-72
2020/12/12 08:56:49;;;;;;;69.47;27.67;;;;;;;-4.94;100.00;99237.34;1781921;78;21158;-70
2020/12/12 08:59:24;;;;;;;79.72;37.45;;;;;;;-4.88;100.00;99246.66;1793041;78;21074;-71
2020/12/12 09:02:27;;;;;;;59.30;29.72;;;;;;;-4.87;100.00;99237.84;1779835;80;22304;-71
2020/12/12 09:05:11;;;;;;;58.75;28.83;;;;;;;-4.85;100.00;99231.95;1785249;80;21152;-72
2020/12/12 09:07:39;;;;;;;58.90;32.23;;;;;;;-4.87;100.00;99223.94;1794514;78;21635;-70
2020/12/12 09:10:14;;;;;;;67.40;34.18;;;;;;;-4.94;100.00;99221.14;1816385;78;21106;-70
2020/12/12 09:13:00;;;;;;;55.08;27.58;;;;;;;-4.90;100.00;99222.92;1818017;78;21185;-70
2020/12/12 09:15:27;;;;;;;74.03;34.88;;;;;;;-4.92;100.00;99229.66;1731492;82;21241;-71
2020/12/12 09:18:01;;;;;;;91.28;38.55;;;;;;;-4.97;100.00;99226.70;1730119;82;21216;-72
2020/12/12 09:20:29;;;;;;;78.57;38.75;;;;;;;-4.93;100.00;99224.56;1726542;83;21184;-70
2020/12/12 09:22:57;;;;;;;73.15;39.13;;;;;;;-4.89;100.00;99229.81;1726341;83;21612;-71
2020/12/12 09:25:25;;;;;;;73.37;36.50;;;;;;;-4.90;100.00;99224.23;1726836;83;21193;-71
2020/12/12 09:28:22;;;;;;;60.63;29.77;;;;;;;-4.88;100.00;99224.41;1702476;82;21675;-70
2020/12/12 09:30:50;;;;;;;82.55;36.60;;;;;;;-4.86;100.00;99221.14;1711447;82;21212;-70
2020/12/12 09:33:23;;;;;;;51.70;30.08;;;;;;;-4.84;100.00;99219.67;1722235;83;21098;-72
2020/12/12 09:35:54;;;;;;;63.60;32.45;;;;;;;-4.82;100.00;99214.60;1721266;83;21252;-71
2020/12/12 09:38:35;;;;;;;58.70;33.75;;;;;;;-4.78;100.00;99208.06;1694316;84;21267;-71
2020/12/12 09:41:08;;;;;;;56.83;30.77;;;;;;;-4.85;100.00;99205.77;1701338;83;21260;-71
2020/12/12 09:44:29;;;;;;;;;;;;;;;;;;;;;
2020/12/12 09:47:46;;;;;;;;;;;;;;;;;;;;;
2020/12/12 10:01:21;;;;;;;84.50;36.90;;;;;;;-4.78;100.00;99159.62;1817447;77;28183;-72
2020/12/12 10:04:00;;;;;;;63.50;30.90;;;;;;;-4.76;100.00;99157.64;1754142;81;21543;-71
2020/12/12 10:07:00;;;;;;;;;;;;;;;-4.73;100.00;99155.17;1747855;81;22073;-72
2020/12/12 10:09:47;;;;;;;;;;;;;;;;;;;;;
2020/12/12 10:12:22;;;;;;;89.65;37.78;;;;;;;-4.68;100.00;99152.88;1841058;77;28217;-74
2020/12/12 10:15:02;;;;;;;77.97;36.17;;;;;;;-4.69;100.00;99159.11;1816261;79;21051;-73
2020/12/12 10:17:35;;;;;;;107.10;43.85;;;;;;;-4.69;100.00;99153.06;1747013;82;21455;-72
2020/12/12 10:21:32;;;;;;;105.37;45.28;;;;;;;-4.70;100.00;99154.87;1766318;80;21023;-72
2020/12/12 10:24:45;;;;;;;106.80;45.88;;;;;;;-4.70;100.00;99146.17;1861260;75;28213;-75
2020/12/12 10:27:36;;;;;;;74.80;32.45;;;;;;;-4.74;100.00;99152.25;1786726;80;25187;-74
2020/12/12 10:30:19;;;;;;;68.80;36.17;;;;;;;-4.76;100.00;99138.49;1787006;80;22237;-73
2020/12/12 10:32:53;;;;;;;56.75;29.05;;;;;;;-4.79;100.00;99137.52;1786138;80;20934;-72
2020/12/12 10:35:21;;;;;;;79.58;36.63;;;;;;;-4.76;100.00;99147.16;1787473;80;21734;-72
2020/12/12 10:37:49;;;;;;;74.12;36.35;;;;;;;-4.78;100.00;99150.47;1787002;80;21580;-72
2020/12/12 10:40:24;;;;;;;78.78;39.35;;;;;;;-4.78;100.00;99156.16;1787338;79;21029;-72
2020/12/12 10:42:50;;;;;;;61.08;30.45;;;;;;;-4.80;100.00;99134.09;1786990;80;21627;-71
2020/12/12 10:45:18;;;;;;;72.30;32.03;;;;;;;-4.74;100.00;99146.51;1786422;80;21029;-71
2020/12/12 10:47:46;;;;;;;76.22;37.03;;;;;;;-4.71;100.00;99149.29;1786777;80;21018;-72
2020/12/12 10:50:14;;;;;;;98.50;41.80;;;;;;;-4.65;100.00;99142.09;1785987;80;28063;-70
2020/12/12 10:52:52;;;;;;;80.03;38.55;;;;;;;-4.61;100.00;99136.02;1785216;80;21105;-71
2020/12/12 10:55:40;;;;;;;70.00;33.70;;;;;;;-4.55;100.00;99140.11;1794216;77;28235;-74
2020/12/12 10:58:31;;;;;;;122.62;46.42;;;;;;;-4.57;100.00;99132.91;1708083;82;21050;-71
2020/12/12 11:01:08;;;;;;;117.35;47.40;;;;;;;-4.57;100.00;99130.78;1739198;82;21388;-71
2020/12/12 11:03:50;;;;;;;83.97;39.20;;;;;;;-4.53;100.00;99128.17;1739134;80;21015;-70
2020/12/12 11:06:28;;;;;;;58.90;34.73;;;;;;;-4.51;100.00;99135.34;1739565;81;21687;-70
2020/12/12 11:09:11;;;;;;;52.08;29.60;;;;;;;-4.47;100.00;99134.53;1743256;80;21038;-69
2020/12/12 11:11:56;;;;;;;61.10;31.70;;;;;;;-4.47;100.00;99140.58;1784806;80;21195;-71
2020/12/12 11:14:34;;;;;;;162.27;68.28;;;;;;;-4.43;100.00;99134.53;1743871;82;21428;-71
2020/12/12 11:18:07;;;;;;;93.67;36.53;;;;;;;-4.38;100.00;99131.73;1850420;77;28704;-69
2020/12/12 11:20:38;;;;;;;65.30;31.95;;;;;;;-4.39;100.00;99143.17;1818711;78;20983;-71
2020/12/12 11:25:52;;;;;;;141.68;59.55;;;;;;;-4.34;100.00;99134.81;1847384;77;28689;-69
2020/12/12 11:28:27;;;;;;;101.22;47.62;;;;;;;-4.33;100.00;99135.16;1754622;81;21656;-69
2020/12/12 11:31:04;;;;;;;89.17;45.43;;;;;;;-4.35;100.00;99137.94;1767106;78;21425;-73
2020/12/12 11:33:35;;;;;;;110.32;49.80;;;;;;;-4.34;100.00;99139.55;1767467;81;21058;-72
2020/12/12 11:38:42;;;;;;;98.75;44.65;;;;;;;-4.25;100.00;99136.94;1737472;81;21220;-71
2020/12/12 11:41:16;;;;;;;139.12;60.67;;;;;;;-4.21;100.00;99127.26;1754090;81;21182;-70
2020/12/12 11:43:56;;;;;;;92.22;41.35;;;;;;;-4.18;100.00;99129.53;1760929;81;21655;-72
2020/12/12 11:48:59;;;;;;;78.12;38.63;;;;;;;-4.14;100.00;99132.16;1850837;77;28643;-72
2020/12/12 11:51:46;;;;;;;;;;;;;;;;;;;;;
2020/12/12 11:54:13;;;;;;;118.13;46.35;;;;;;;-4.16;100.00;99143.30;1843407;76;28044;-71
2020/12/12 11:56:43;;;;;;;55.75;29.10;;;;;;;-4.18;100.00;99144.45;1855321;77;21545;-71
2020/12/12 11:59:17;;;;;;;103.12;41.70;;;;;;;-4.21;100.00;99146.91;1785163;80;21811;-73
2020/12/12 12:01:45;;;;;;;54.50;30.68;;;;;;;-4.19;100.00;99160.67;1789349;80;21084;-71
2020/12/12 12:04:24;;;;;;;49.13;26.27;;;;;;;-4.18;100.00;99147.87;1789317;80;21019;-73
2020/12/12 12:07:38;;;;;;;;;;;;;;;;;;;;;
2020/12/12 12:13:24;;;;;;;146.60;60.35;;;;;;;-4.22;100.00;99151.00;1751676;80;21195;-72
2020/12/12 12:16:18;;;;;;;;;;;;;;;;;;;;;
2020/12/12 12:18:48;;;;;;;199.60;76.75;;;;;;;-4.23;100.00;99140.20;1744406;82;20967;-72
2020/12/12 12:21:44;;;;;;;135.80;53.13;;;;;;;-4.18;100.00;99140.52;1849776;77;28201;-71
2020/12/12 12:24:32;;;;;;;194.13;69.97;;;;;;;-4.20;100.00;99148.53;1812171;78;21015;-70
2020/12/12 12:27:03;;;;;;;;;;;;;;;-4.20;100.00;99151.16;1820424;78;21714;-69
2020/12/12 12:29:39;;;;;;;83.78;35.50;;;;;;;-4.25;100.00;99152.16;1817252;78;20621;-69
2020/12/12 12:34:53;;;;;;;68.75;31.30;;;;;;;-4.15;100.00;99150.16;1850045;77;28240;-69
2020/12/12 12:37:31;;;;;;;220.07;88.25;;;;;;;-4.22;100.00;99153.63;1817167;78;21049;-69
2020/12/12 12:40:02;;;;;;;174.62;74.97;;;;;;;-4.22;100.00;99143.95;1715579;83;21287;-71
2020/12/12 12:42:32;;;;;;;93.22;42.08;;;;;;;-4.19;100.00;99154.13;1750587;81;21028;-71
2020/12/12 12:45:11;;;;;;;81.95;37.03;;;;;;;-4.20;100.00;99154.28;1801484;78;20999;-71
2020/12/12 12:47:40;;;;;;;91.37;46.42;;;;;;;-4.17;100.00;99152.63;1785288;79;21039;-69
2020/12/12 12:50:38;;;;;;;69.95;35.60;;;;;;;-4.13;100.00;99158.67;1849869;77;28645;-71
2020/12/12 12:53:10;;;;;;;186.00;78.00;;;;;;;-4.18;100.00;99153.13;1817676;78;20956;-70
2020/12/12 12:55:45;;;;;;;112.37;48.50;;;;;;;-4.21;100.00;99157.90;1817951;78;21194;-69
2020/12/12 12:58:17;;;;;;;101.35;47.27;;;;;;;-4.22;100.00;99155.75;1817821;78;21616;-70
2020/12/12 13:01:04;;;;;;;206.97;75.42;;;;;;;-4.23;100.00;99158.05;1800543;78;20979;-71
2020/12/12 13:03:42;;;;;;;292.25;83.20;;;;;;;-4.21;100.00;99160.02;1816086;78;20971;-73
2020/12/12 13:06:28;;;;;;;140.47;52.03;;;;;;;-4.16;100.00;99161.64;1854682;75;28201;-72
2020/12/12 13:09:05;;;;;;;208.23;79.40;;;;;;;-4.20;100.00;99166.88;1794907;78;20997;-70
2020/12/12 13:11:43;;;;;;;86.53;38.48;;;;;;;-4.19;100.00;99161.14;1820838;78;21172;-69
2020/12/12 13:14:12;;;;;;;184.65;74.15;;;;;;;-4.20;100.00;99159.02;1820480;78;21049;-70
2020/12/12 13:16:41;;;;;;;119.37;50.78;;;;;;;-4.21;100.00;99153.47;1821989;78;21891;-71
2020/12/12 13:19:27;;;;;;;113.35;47.60;;;;;;;-4.21;100.00;99163.14;1822190;78;21044;-72
2020/12/12 13:21:54;;;;;;;256.38;82.15;;;;;;;-4.20;100.00;99160.33;1820777;78;21001;-73
2020/12/12 13:24:20;;;;;;;256.57;94.22;;;;;;;-4.21;100.00;99157.90;1791323;78;22248;-71
2020/12/12 13:26:56;;;;;;;198.00;77.55;;;;;;;-4.20;100.00;99151.66;1821818;78;21453;-72
2020/12/12 13:30:13;;;;;;;201.60;67.47;;;;;;;-4.19;100.00;99154.59;1822285;78;21002;-72
2020/12/12 13:32:18;;;;;;;64.75;31.68;;;;;;;-4.17;100.00;99166.54;1791353;78;21112;-70
2020/12/12 13:34:52;;;;;;;66.15;30.35;;;;;;;-4.19;100.00;99150.19;1818090;78;21065;-69
2020/12/12 13:37:20;;;;;;;58.87;29.57;;;;;;;-4.20;100.00;99162.95;1821001;78;22064;-71
2020/12/12 13:39:50;;;;;;;56.10;29.35;;;;;;;-4.20;100.00;99176.05;1820926;78;21160;-71
2020/12/12 13:42:23;;;;;;;54.75;26.70;;;;;;;-4.19;100.00;99178.17;1820803;78;21207;-72
2020/12/12 13:44:55;;;;;;;72.70;34.63;;;;;;;-4.18;100.00;99175.90;1820200;78;21737;-72
2020/12/12 13:47:23;;;;;;;41.50;23.05;;;;;;;-4.18;100.00;99178.02;1789182;78;25036;-70
2020/12/12 13:49:51;;;;;;;;;;;;;;;-4.17;100.00;99177.52;1823495;78;21756;-71
2020/12/12 13:52:20;;;;;;;56.53;26.60;;;;;;;-4.20;100.00;99157.70;1820944;78;20299;-69
2020/12/12 13:54:53;;;;;;;85.07;32.35;;;;;;;-4.20;100.00;99178.67;1821263;78;21148;-73